Terminal Aerodrome Forecast
Issued by NWS

Home | Current Version | Previous Version | Text Only | Print | Product List | Glossary On
Versions: 1 2 3 4 5 6 7 8 9 10 11 12 13 14 15 16 17 18 19
000
FTUS46 KMFR 211751
TAFOTH
TAF
KOTH 211751Z 2118/2218 12005KT P6SM FEW015 SCT050 BKN160
     FM220000 33007KT P6SM SCT025 BKN040 BKN120
     FM220500 19007KT 6SM -RA BR BKN025 OVC035
     FM220900 28014G23KT 4SM SHRA BR SCT008 BKN015 OVC020=

USA.gov is the U.S. government's official web portal to all federal, state and local government web resources and services.